createdAt,value
2018-07-21T00:00:01.901Z,18.10
2018-07-21T00:02:32.729Z,18.00
2018-07-21T00:05:03.578Z,18.00
2018-07-21T00:07:34.394Z,18.00
2018-07-21T00:10:05.447Z,18.00
2018-07-21T00:12:36.237Z,18.00
2018-07-21T00:15:07.385Z,18.00
2018-07-21T00:17:38.276Z,17.90
2018-07-21T00:20:09.128Z,17.90
2018-07-21T00:22:39.925Z,17.80
2018-07-21T00:25:11.739Z,17.90
2018-07-21T00:27:42.861Z,17.80
2018-07-21T00:30:13.698Z,17.80
2018-07-21T00:32:44.506Z,17.90
2018-07-21T00:35:15.342Z,17.80
2018-07-21T00:37:46.139Z,17.80
2018-07-21T00:40:17.477Z,17.90
2018-07-21T00:42:48.297Z,17.90
2018-07-21T00:45:19.169Z,18.00
2018-07-21T00:47:50.663Z,17.90
2018-07-21T00:50:21.453Z,17.90
2018-07-21T00:52:52.265Z,17.80
2018-07-21T00:55:23.179Z,17.80
2018-07-21T00:57:53.960Z,17.90
2018-07-21T01:00:25.418Z,17.80
2018-07-21T01:02:56.614Z,17.90
2018-07-21T01:05:27.800Z,17.90
2018-07-21T01:07:59.466Z,17.80
2018-07-21T01:10:31.033Z,17.80
2018-07-21T01:13:03.300Z,17.70
2018-07-21T01:15:34.728Z,17.60
2018-07-21T01:18:05.772Z,17.60
2018-07-21T01:20:36.624Z,17.60
2018-07-21T01:23:07.472Z,17.60
2018-07-21T01:25:38.301Z,17.60
2018-07-21T01:28:09.124Z,17.60
2018-07-21T01:30:39.925Z,17.60
2018-07-21T01:33:10.756Z,17.60
2018-07-21T01:35:41.600Z,17.60
2018-07-21T01:38:12.832Z,17.60
2018-07-21T01:40:44.111Z,17.50
2018-07-21T01:43:14.884Z,17.60
2018-07-21T01:45:45.712Z,17.50
2018-07-21T01:48:16.515Z,17.50
2018-07-21T01:50:47.336Z,17.50
2018-07-21T01:53:18.160Z,17.50
2018-07-21T01:55:48.961Z,17.50
2018-07-21T01:58:19.782Z,17.50
2018-07-21T02:00:50.632Z,17.50
2018-07-21T02:03:21.435Z,17.50
2018-07-21T02:08:22.436Z,17.50
2018-07-21T02:10:53.260Z,17.50
2018-07-21T02:13:24.034Z,17.50
2018-07-21T02:15:54.834Z,17.50
2018-07-21T02:18:25.969Z,17.50
2018-07-21T02:20:56.765Z,17.50
2018-07-21T02:23:27.560Z,17.50
2018-07-21T02:25:58.386Z,17.50
2018-07-21T02:28:29.133Z,17.50
2018-07-21T02:30:59.928Z,17.60
2018-07-21T02:33:30.762Z,17.60
2018-07-21T02:36:01.573Z,17.60
2018-07-21T02:38:32.359Z,17.60
2018-07-21T02:41:03.378Z,17.70
2018-07-21T02:43:34.190Z,17.70
2018-07-21T02:48:35.860Z,17.70
2018-07-21T02:51:06.758Z,17.70
2018-07-21T02:53:37.545Z,17.70
2018-07-21T02:56:08.337Z,17.60
2018-07-21T02:58:39.277Z,17.60
2018-07-21T03:01:10.252Z,17.60
2018-07-21T03:03:41.038Z,17.60
2018-07-21T03:06:11.832Z,17.60
2018-07-21T03:08:42.663Z,17.60
2018-07-21T03:11:13.408Z,17.70
2018-07-21T03:13:44.207Z,17.70
2018-07-21T03:16:14.982Z,17.70
2018-07-21T03:18:46.251Z,17.80
2018-07-21T03:21:17.092Z,17.70
2018-07-21T03:23:47.925Z,17.80
2018-07-21T03:26:18.721Z,17.80
2018-07-21T03:28:52.549Z,17.70
2018-07-21T03:31:23.341Z,17.70
2018-07-21T03:33:54.105Z,17.70
2018-07-21T03:36:24.938Z,17.80
2018-07-21T03:38:55.745Z,17.70
2018-07-21T03:41:26.519Z,17.70
2018-07-21T03:43:57.310Z,17.70
2018-07-21T03:46:28.116Z,17.70
2018-07-21T03:48:58.940Z,17.80
2018-07-21T03:51:29.788Z,17.70
2018-07-21T03:54:00.553Z,17.70
2018-07-21T03:56:31.223Z,17.70
2018-07-21T03:59:01.868Z,17.70
2018-07-21T04:01:32.525Z,17.70
2018-07-21T04:04:03.240Z,17.70
2018-07-21T04:06:33.911Z,17.70
2018-07-21T04:09:05.235Z,17.70
2018-07-21T04:11:35.871Z,17.80
2018-07-21T04:14:06.622Z,17.70
2018-07-21T04:16:37.648Z,17.70
2018-07-21T04:19:09.610Z,17.70
2018-07-21T04:21:40.266Z,17.70
2018-07-21T04:26:41.106Z,17.70
2018-07-21T04:29:11.853Z,17.70
2018-07-21T04:31:42.482Z,17.80
2018-07-21T04:34:13.177Z,17.80
2018-07-21T04:36:43.848Z,17.80
2018-07-21T04:39:14.534Z,17.70
2018-07-21T04:41:45.165Z,17.80
2018-07-21T04:44:15.839Z,17.80
2018-07-21T04:46:46.477Z,17.70
2018-07-21T04:49:17.615Z,17.70
2018-07-21T04:51:48.314Z,17.70
2018-07-21T04:54:19.000Z,17.70
2018-07-21T04:56:49.742Z,17.70
2018-07-21T04:59:20.416Z,17.70
2018-07-21T05:01:51.052Z,17.70
2018-07-21T05:04:21.717Z,17.80
2018-07-21T05:06:52.368Z,17.80
2018-07-21T05:09:22.999Z,17.80
2018-07-21T05:11:53.659Z,17.80
2018-07-21T05:14:24.731Z,17.90
2018-07-21T05:16:55.395Z,18.00
2018-07-21T05:19:26.087Z,17.90
2018-07-21T05:21:56.782Z,17.90
2018-07-21T05:24:27.434Z,17.90
2018-07-21T05:26:58.128Z,18.00
2018-07-21T05:29:28.918Z,18.00
2018-07-21T05:31:59.653Z,18.10
2018-07-21T05:34:30.336Z,18.00
2018-07-21T05:37:01.035Z,18.00
2018-07-21T05:39:31.728Z,18.00
2018-07-21T05:42:02.438Z,18.00
2018-07-21T05:44:33.117Z,17.90
2018-07-21T05:47:03.832Z,17.90
2018-07-21T05:49:34.659Z,17.90
2018-07-21T05:52:05.419Z,18.00
2018-07-21T05:59:26.784Z,18.10
2018-07-21T06:01:57.471Z,18.20
2018-07-21T06:06:58.275Z,18.20
2018-07-21T06:09:28.915Z,18.10
2018-07-21T06:11:59.576Z,18.00
2018-07-21T06:14:30.276Z,18.00
2018-07-21T06:19:31.054Z,18.00
2018-07-21T06:22:01.903Z,18.10
2018-07-21T06:24:32.709Z,18.10
2018-07-21T06:27:03.377Z,18.20
2018-07-21T06:29:34.065Z,18.20
2018-07-21T06:32:04.808Z,18.20
2018-07-21T06:34:35.487Z,18.20
2018-07-21T06:37:06.274Z,18.20
2018-07-21T06:39:36.956Z,18.30
2018-07-21T06:42:07.634Z,18.30
2018-07-21T06:44:38.343Z,18.40
2018-07-21T06:47:15.494Z,18.40
2018-07-21T06:49:46.147Z,18.50
2018-07-21T06:52:16.982Z,18.70
2018-07-21T06:54:47.659Z,18.70
2018-07-21T06:57:18.304Z,18.70
2018-07-21T06:59:48.978Z,18.80
2018-07-21T07:02:19.729Z,18.90
2018-07-21T07:04:50.392Z,19.00
2018-07-21T07:07:21.029Z,18.90
2018-07-21T07:09:52.102Z,18.90
2018-07-21T07:12:22.760Z,18.80
2018-07-21T07:14:53.451Z,18.90
2018-07-21T07:17:24.109Z,18.90
2018-07-21T07:19:54.752Z,18.90
2018-07-21T07:22:25.379Z,18.90
2018-07-21T07:29:56.555Z,18.90
2018-07-21T07:32:27.206Z,18.90
2018-07-21T07:34:57.888Z,19.00
2018-07-21T07:37:28.573Z,19.10
2018-07-21T07:39:59.919Z,19.00
2018-07-21T07:42:30.569Z,19.10
2018-07-21T07:45:01.248Z,19.10
2018-07-21T07:47:31.898Z,19.10
2018-07-21T07:50:02.749Z,19.10
2018-07-21T07:52:33.390Z,19.10
2018-07-21T07:55:04.139Z,19.20
2018-07-21T07:57:34.807Z,19.10
2018-07-21T08:00:06.206Z,19.10
2018-07-21T08:02:36.948Z,19.10
2018-07-21T08:05:07.772Z,19.20
2018-07-21T08:07:38.420Z,19.20
2018-07-21T08:10:09.127Z,19.10
2018-07-21T08:12:39.839Z,19.20
2018-07-21T08:15:10.521Z,19.40
2018-07-21T08:17:41.207Z,19.40
2018-07-21T08:20:11.892Z,19.40
2018-07-21T08:22:42.600Z,19.30
2018-07-21T08:25:13.319Z,19.30
2018-07-21T08:27:43.983Z,19.30
2018-07-21T08:30:14.706Z,19.40
2018-07-21T08:32:45.354Z,19.40
2018-07-21T08:35:16.069Z,19.40
2018-07-21T08:37:46.771Z,19.50
2018-07-21T08:42:48.072Z,19.40
2018-07-21T08:45:18.768Z,19.30
2018-07-21T08:47:49.439Z,19.40
2018-07-21T08:50:20.131Z,19.30
2018-07-21T08:52:50.804Z,19.30
2018-07-21T08:55:21.498Z,19.40
2018-07-21T08:57:52.172Z,19.50
2018-07-21T09:00:22.866Z,19.60
2018-07-21T09:02:53.628Z,19.70
2018-07-21T09:05:24.376Z,19.80
2018-07-21T09:10:25.256Z,20.20
2018-07-21T09:12:56.321Z,20.20
2018-07-21T09:17:57.105Z,20.10
2018-07-21T09:20:27.784Z,20.10
2018-07-21T09:25:28.575Z,20.70
2018-07-21T09:27:59.285Z,20.80
2018-07-21T09:30:29.960Z,20.70
2018-07-21T09:33:00.851Z,20.80
2018-07-21T09:35:31.864Z,20.80
2018-07-21T09:38:02.569Z,20.90
2018-07-21T09:40:33.292Z,20.80
2018-07-21T09:43:03.967Z,21.20
2018-07-21T09:45:34.619Z,21.30
2018-07-21T09:48:06.322Z,21.50
2018-07-21T09:50:36.978Z,21.60
2018-07-21T09:55:38.015Z,21.50
2018-07-21T09:58:08.663Z,21.40
2018-07-21T10:00:44.279Z,21.60
2018-07-21T10:03:14.914Z,21.40
2018-07-21T10:05:45.624Z,21.50
2018-07-21T10:08:16.551Z,21.70
2018-07-21T10:10:50.143Z,21.60
2018-07-21T10:13:20.935Z,21.60
2018-07-21T10:15:51.632Z,21.70
2018-07-21T10:18:22.413Z,21.90
2018-07-21T10:20:53.099Z,22.40
2018-07-21T10:23:23.795Z,22.50
2018-07-21T10:25:59.453Z,23.00
2018-07-21T10:28:35.839Z,23.30
2018-07-21T10:31:06.584Z,22.80
2018-07-21T10:33:37.271Z,22.50
2018-07-21T10:38:38.369Z,23.00
2018-07-21T10:41:09.060Z,23.40
2018-07-21T10:43:39.711Z,23.60
2018-07-21T10:46:10.349Z,22.90
2018-07-21T10:48:41.077Z,22.60
2018-07-21T10:51:11.727Z,22.40
2018-07-21T10:53:42.423Z,22.00
2018-07-21T10:56:13.095Z,22.00
2018-07-21T10:58:43.756Z,21.70
2018-07-21T11:01:14.580Z,21.50
2018-07-21T11:03:46.202Z,21.20
2018-07-21T11:06:16.858Z,21.00
2018-07-21T11:08:47.596Z,21.00
2018-07-21T11:11:18.273Z,21.00
2018-07-21T11:13:48.980Z,20.80
2018-07-21T11:16:19.641Z,20.60
2018-07-21T11:18:50.327Z,20.60
2018-07-21T11:21:20.970Z,20.60
2018-07-21T11:23:52.153Z,20.70
2018-07-21T11:26:23.147Z,20.80
2018-07-21T11:28:53.911Z,21.00
2018-07-21T11:31:24.590Z,21.10
2018-07-21T11:33:55.256Z,21.20
2018-07-21T11:36:25.906Z,21.30
2018-07-21T11:38:56.583Z,21.30
2018-07-21T11:41:27.248Z,21.20
2018-07-21T11:43:58.032Z,21.20
2018-07-21T11:46:28.822Z,21.00
2018-07-21T11:48:59.539Z,21.00
2018-07-21T11:51:30.206Z,21.10
2018-07-21T11:54:00.987Z,21.30
2018-07-21T11:56:31.654Z,21.30
2018-07-21T11:59:02.359Z,21.50
2018-07-21T12:01:33.008Z,21.80
2018-07-21T12:04:03.731Z,21.80
2018-07-21T12:06:34.425Z,21.70
2018-07-21T12:09:06.884Z,21.70
2018-07-21T12:11:37.631Z,21.70
2018-07-21T12:14:08.306Z,21.80
2018-07-21T12:16:38.971Z,22.10
2018-07-21T12:19:10.165Z,22.30
2018-07-21T12:21:41.163Z,22.50
2018-07-21T12:24:11.811Z,22.80
2018-07-21T12:26:42.494Z,22.70
2018-07-21T12:29:13.176Z,22.40
2018-07-21T12:31:43.877Z,22.50
2018-07-21T12:34:14.589Z,22.30
2018-07-21T12:36:45.224Z,22.40
2018-07-21T12:39:15.879Z,22.90
2018-07-21T12:41:46.554Z,23.10
2018-07-21T12:44:17.224Z,23.50
2018-07-21T12:46:47.903Z,23.80
2018-07-21T12:49:18.832Z,24.10
2018-07-21T12:51:50.095Z,24.00
2018-07-21T12:54:20.762Z,23.60
2018-07-21T12:56:51.412Z,23.20
2018-07-21T12:59:22.087Z,23.10
2018-07-21T13:01:52.729Z,23.40
2018-07-21T13:04:23.408Z,23.60
2018-07-21T13:09:24.215Z,23.90
2018-07-21T13:11:54.899Z,23.70
2018-07-21T13:14:25.687Z,24.00
2018-07-21T13:16:56.369Z,24.40
2018-07-21T13:19:27.352Z,24.50
2018-07-21T13:21:57.997Z,24.80
2018-07-21T13:24:28.667Z,24.40
2018-07-21T13:26:59.340Z,24.30
2018-07-21T13:29:30.039Z,24.60
2018-07-21T13:32:00.683Z,25.20
2018-07-21T13:34:31.359Z,24.80
2018-07-21T13:37:02.062Z,25.30
2018-07-21T13:39:32.709Z,25.60
2018-07-21T13:42:03.391Z,25.50
2018-07-21T13:44:34.175Z,25.10
2018-07-21T13:47:05.282Z,24.60
2018-07-21T13:49:35.981Z,24.90
2018-07-21T13:52:06.739Z,24.70
2018-07-21T13:54:37.556Z,24.60
2018-07-21T13:57:08.425Z,24.20
2018-07-21T13:59:45.624Z,24.10
2018-07-21T14:02:16.690Z,24.20
2018-07-21T14:04:47.396Z,24.30
2018-07-21T14:07:18.031Z,24.40
2018-07-21T14:09:48.842Z,23.80
2018-07-21T14:12:19.502Z,23.90
2018-07-21T14:14:50.167Z,23.80
2018-07-21T14:17:20.804Z,23.60
2018-07-21T14:19:51.911Z,23.80
2018-07-21T14:22:22.594Z,23.80
2018-07-21T14:24:53.320Z,24.00
2018-07-21T14:27:23.963Z,24.00
2018-07-21T14:29:54.721Z,23.90
2018-07-21T14:32:25.529Z,24.10
2018-07-21T14:34:56.264Z,24.20
2018-07-21T14:37:26.972Z,24.30
2018-07-21T14:39:57.619Z,24.40
2018-07-21T14:42:28.317Z,24.10
2018-07-21T14:44:59.111Z,23.90
2018-07-21T14:47:29.811Z,23.80
2018-07-21T14:50:00.555Z,23.90
2018-07-21T14:52:31.291Z,24.10
2018-07-21T14:55:02.027Z,24.20
2018-07-21T14:57:32.685Z,24.20
2018-07-21T15:00:03.869Z,24.20
2018-07-21T15:02:34.559Z,24.20
2018-07-21T15:05:05.271Z,24.30
2018-07-21T15:11:09.743Z,24.40
2018-07-21T15:13:41.744Z,24.10
2018-07-21T15:16:12.442Z,23.80
2018-07-21T15:18:46.459Z,24.00
2018-07-21T15:21:18.098Z,24.10
2018-07-21T15:23:49.664Z,24.50
2018-07-21T15:26:20.299Z,24.70
2018-07-21T15:28:51.011Z,24.90
2018-07-21T15:31:21.750Z,24.80
2018-07-21T15:33:52.423Z,24.70
2018-07-21T15:36:23.113Z,24.60
2018-07-21T15:38:53.804Z,24.50
2018-07-21T15:41:24.494Z,24.20
2018-07-21T15:43:55.320Z,24.00
2018-07-21T15:46:26.008Z,24.10
2018-07-21T15:48:56.699Z,24.10
2018-07-21T15:51:27.552Z,24.20
2018-07-21T15:53:58.766Z,24.40
2018-07-21T15:56:29.508Z,24.40
2018-07-21T15:59:00.202Z,24.30
2018-07-21T16:01:30.922Z,24.50
2018-07-21T16:04:01.781Z,24.60
2018-07-21T16:06:32.470Z,24.50
2018-07-21T16:09:03.859Z,24.20
2018-07-21T16:11:34.556Z,24.10
2018-07-21T16:14:05.328Z,23.90
2018-07-21T16:16:36.204Z,24.00
2018-07-21T16:19:07.256Z,23.90
2018-07-21T16:21:37.898Z,23.90
2018-07-21T16:24:08.929Z,24.20
2018-07-21T16:26:39.614Z,24.30
2018-07-21T16:29:10.416Z,24.50
2018-07-21T16:31:41.111Z,24.20
2018-07-21T16:34:11.752Z,24.20
2018-07-21T16:36:42.460Z,24.20
2018-07-21T16:39:13.312Z,24.10
2018-07-21T16:41:44.008Z,24.20
2018-07-21T16:44:14.767Z,24.10
2018-07-21T16:46:45.439Z,24.10
2018-07-21T16:51:46.199Z,23.70
2018-07-21T16:54:16.873Z,23.70
2018-07-21T16:56:47.559Z,23.70
2018-07-21T16:59:18.211Z,23.70
2018-07-21T17:01:48.931Z,23.80
2018-07-21T17:04:19.652Z,23.80
2018-07-21T17:09:20.471Z,24.00
2018-07-21T17:11:51.199Z,24.10
2018-07-21T17:14:21.990Z,24.20
2018-07-21T17:16:52.688Z,24.20
2018-07-21T17:19:23.344Z,24.20
2018-07-21T17:21:54.023Z,24.20
2018-07-21T17:24:24.680Z,24.00
2018-07-21T17:26:55.403Z,23.90
2018-07-21T17:29:26.222Z,23.70
2018-07-21T17:31:56.892Z,23.60
2018-07-21T17:34:27.551Z,23.50
2018-07-21T17:36:58.211Z,23.40
2018-07-21T17:39:29.210Z,23.50
2018-07-21T17:41:59.870Z,23.60
2018-07-21T17:47:00.859Z,23.70
2018-07-21T17:52:01.683Z,23.40
2018-07-21T17:54:32.387Z,23.40
2018-07-21T17:57:03.061Z,23.40
2018-07-21T17:59:33.819Z,23.40
2018-07-21T18:02:04.535Z,23.40
2018-07-21T18:04:35.748Z,23.50
2018-07-21T18:07:06.505Z,23.50
2018-07-21T18:09:37.230Z,23.60
2018-07-21T18:12:09.110Z,23.50
2018-07-21T18:14:39.887Z,23.50
2018-07-21T18:17:10.973Z,23.50
2018-07-21T18:19:41.916Z,23.30
2018-07-21T18:22:12.566Z,23.30
2018-07-21T18:24:43.269Z,23.20
2018-07-21T18:27:14.117Z,23.20
2018-07-21T18:29:45.111Z,23.20
2018-07-21T18:32:15.780Z,23.10
2018-07-21T18:34:46.511Z,23.00
2018-07-21T18:37:17.226Z,22.90
2018-07-21T18:42:18.445Z,22.80
2018-07-21T18:44:49.194Z,22.80
2018-07-21T18:47:19.892Z,22.60
2018-07-21T18:49:50.615Z,22.50
2018-07-21T18:52:21.336Z,22.50
2018-07-21T18:54:52.154Z,22.40
2018-07-21T18:57:22.843Z,22.50
2018-07-21T19:02:23.741Z,22.50
2018-07-21T19:04:54.414Z,22.50
2018-07-21T19:07:25.256Z,22.40
2018-07-21T19:09:55.950Z,22.40
2018-07-21T19:12:31.704Z,22.30
2018-07-21T19:17:32.558Z,22.30
2018-07-21T19:20:08.444Z,22.20
2018-07-21T19:22:39.148Z,22.20
2018-07-21T19:25:14.624Z,22.10
2018-07-21T19:27:46.923Z,22.10
2018-07-21T19:30:17.654Z,21.90
2018-07-21T19:32:53.125Z,21.90
2018-07-21T19:35:23.778Z,21.80
2018-07-21T19:37:54.443Z,21.70
2018-07-21T19:40:25.118Z,21.70
2018-07-21T19:42:55.887Z,21.60
2018-07-21T19:45:26.611Z,21.60
2018-07-21T19:47:57.331Z,21.60
2018-07-21T19:50:28.100Z,21.50
2018-07-21T19:52:58.788Z,21.40
2018-07-21T19:55:29.465Z,21.40
2018-07-21T19:58:00.125Z,21.30
2018-07-21T20:00:32.771Z,21.30
2018-07-21T20:03:03.550Z,21.30
2018-07-21T20:05:34.222Z,21.30
2018-07-21T20:08:04.966Z,21.20
2018-07-21T20:10:35.609Z,21.20
2018-07-21T20:13:06.579Z,21.10
2018-07-21T20:15:37.246Z,21.00
2018-07-21T20:20:38.196Z,21.00
2018-07-21T20:23:08.922Z,21.00
2018-07-21T20:25:39.602Z,21.00
2018-07-21T20:28:10.271Z,20.90
2018-07-21T20:30:40.996Z,20.90
2018-07-21T20:33:14.623Z,20.80
2018-07-21T20:35:45.319Z,20.70
2018-07-21T20:38:16.010Z,20.70
2018-07-21T20:40:46.742Z,20.60
2018-07-21T20:43:17.427Z,20.50
2018-07-21T20:45:48.142Z,20.50
2018-07-21T20:48:19.268Z,20.40
2018-07-21T20:50:50.005Z,20.40
2018-07-21T20:53:20.699Z,20.40
2018-07-21T20:55:51.373Z,20.30
2018-07-21T20:58:22.024Z,20.30
2018-07-21T21:00:52.771Z,20.20
2018-07-21T21:05:54.108Z,20.20
2018-07-21T21:08:24.825Z,20.10
2018-07-21T21:10:55.513Z,20.10
2018-07-21T21:13:26.257Z,20.10
2018-07-21T21:15:56.915Z,20.10
2018-07-21T21:18:27.618Z,20.00
2018-07-21T21:20:58.288Z,20.00
2018-07-21T21:23:29.025Z,20.00
2018-07-21T21:25:59.715Z,19.90
2018-07-21T21:28:30.468Z,19.90
2018-07-21T21:31:01.165Z,19.90
2018-07-21T21:33:32.349Z,19.90
2018-07-21T21:36:03.008Z,19.90
2018-07-21T21:38:33.681Z,19.80
2018-07-21T21:41:04.351Z,19.80
2018-07-21T21:43:35.062Z,19.70
2018-07-21T21:46:06.152Z,19.70
2018-07-21T21:48:36.823Z,19.70
2018-07-21T21:51:07.570Z,19.70
2018-07-21T21:53:38.256Z,19.60
2018-07-21T21:56:08.922Z,19.60
2018-07-21T21:58:39.636Z,19.50
2018-07-21T22:01:11.744Z,19.60
2018-07-21T22:03:42.868Z,19.60
2018-07-21T22:06:13.564Z,19.50
2018-07-21T22:08:44.220Z,19.50
2018-07-21T22:11:15.007Z,19.50
2018-07-21T22:13:45.701Z,19.50
2018-07-21T22:16:16.409Z,19.50
2018-07-21T22:18:47.116Z,19.50
2018-07-21T22:21:17.798Z,19.40
2018-07-21T22:23:48.483Z,19.40
2018-07-21T22:26:19.272Z,19.30
2018-07-21T22:28:49.954Z,19.20
2018-07-21T22:33:51.315Z,19.20
2018-07-21T22:36:22.020Z,19.30
2018-07-21T22:38:52.700Z,19.30
2018-07-21T22:41:23.374Z,19.30
2018-07-21T22:43:54.150Z,19.20
2018-07-21T22:46:24.888Z,19.20
2018-07-21T22:48:55.558Z,19.10
2018-07-21T22:53:56.344Z,19.10
2018-07-21T22:56:27.132Z,19.10
2018-07-21T22:58:57.967Z,19.10
2018-07-21T23:01:28.655Z,19.10
2018-07-21T23:03:59.415Z,19.10
2018-07-21T23:06:30.120Z,19.10
2018-07-21T23:09:00.811Z,19.20
2018-07-21T23:11:31.523Z,19.10
2018-07-21T23:14:02.263Z,19.00
2018-07-21T23:16:32.910Z,19.00
2018-07-21T23:19:03.638Z,19.00
2018-07-21T23:21:34.339Z,19.00
2018-07-21T23:24:05.075Z,18.90
2018-07-21T23:26:35.792Z,18.80
2018-07-21T23:29:06.460Z,18.80
2018-07-21T23:31:37.168Z,18.80
2018-07-21T23:34:08.275Z,18.80
2018-07-21T23:39:11.463Z,18.70
2018-07-21T23:41:42.105Z,18.70
2018-07-21T23:44:12.791Z,18.70
2018-07-21T23:46:43.463Z,18.70
2018-07-21T23:49:14.090Z,18.60
2018-07-21T23:51:44.774Z,18.60
2018-07-21T23:54:15.469Z,18.60
2018-07-21T23:56:46.140Z,18.80
2018-07-21T23:59:16.810Z,18.70
